sensor_id;sensor_type;location;lat;lon;timestamp;P1;durP1;ratioP1;P2;durP2;ratioP2
19161;SDS011;9713;48.140;11.530;2022-12-29T00:00:27;2.77;;;1.50;;
19161;SDS011;9713;48.140;11.530;2022-12-29T00:04:10;1.70;;;1.10;;
19161;SDS011;9713;48.140;11.530;2022-12-29T00:07:55;2.87;;;1.40;;
19161;SDS011;9713;48.140;11.530;2022-12-29T00:11:38;1.87;;;1.30;;
19161;SDS011;9713;48.140;11.530;2022-12-29T00:15:21;2.50;;;1.30;;
19161;SDS011;9713;48.140;11.530;2022-12-29T00:19:19;2.10;;;1.20;;
19161;SDS011;9713;48.140;11.530;2022-12-29T00:23:20;1.47;;;1.10;;
19161;SDS011;9713;48.140;11.530;2022-12-29T00:27:20;2.57;;;1.23;;
19161;SDS011;9713;48.140;11.530;2022-12-29T00:31:21;1.73;;;1.20;;
19161;SDS011;9713;48.140;11.530;2022-12-29T00:35:24;2.10;;;1.30;;
19161;SDS011;9713;48.140;11.530;2022-12-29T00:39:09;1.83;;;1.00;;
19161;SDS011;9713;48.140;11.530;2022-12-29T00:43:11;1.30;;;0.90;;
19161;SDS011;9713;48.140;11.530;2022-12-29T00:47:25;1.40;;;0.93;;
19161;SDS011;9713;48.140;11.530;2022-12-29T00:51:09;1.37;;;0.93;;
19161;SDS011;9713;48.140;11.530;2022-12-29T00:54:52;2.03;;;1.00;;
19161;SDS011;9713;48.140;11.530;2022-12-29T00:58:35;1.63;;;1.00;;
19161;SDS011;9713;48.140;11.530;2022-12-29T01:02:18;2.37;;;1.20;;
19161;SDS011;9713;48.140;11.530;2022-12-29T01:06:00;1.80;;;1.00;;
19161;SDS011;9713;48.140;11.530;2022-12-29T01:09:45;3.40;;;0.90;;
19161;SDS011;9713;48.140;11.530;2022-12-29T01:13:45;1.30;;;0.90;;
19161;SDS011;9713;48.140;11.530;2022-12-29T01:17:28;1.60;;;0.83;;
19161;SDS011;9713;48.140;11.530;2022-12-29T01:21:10;1.50;;;0.80;;
19161;SDS011;9713;48.140;11.530;2022-12-29T01:24:55;1.47;;;0.80;;
19161;SDS011;9713;48.140;11.530;2022-12-29T01:28:38;1.50;;;0.90;;
19161;SDS011;9713;48.140;11.530;2022-12-29T01:32:22;1.00;;;0.90;;
19161;SDS011;9713;48.140;11.530;2022-12-29T01:36:06;1.50;;;1.03;;
19161;SDS011;9713;48.140;11.530;2022-12-29T01:39:50;2.23;;;0.80;;
19161;SDS011;9713;48.140;11.530;2022-12-29T01:43:39;1.80;;;0.90;;
19161;SDS011;9713;48.140;11.530;2022-12-29T01:47:28;2.23;;;0.90;;
19161;SDS011;9713;48.140;11.530;2022-12-29T01:51:13;1.40;;;0.90;;
19161;SDS011;9713;48.140;11.530;2022-12-29T01:54:58;3.20;;;0.90;;
19161;SDS011;9713;48.140;11.530;2022-12-29T01:58:44;2.33;;;0.90;;
19161;SDS011;9713;48.140;11.530;2022-12-29T02:02:28;1.67;;;1.00;;
19161;SDS011;9713;48.140;11.530;2022-12-29T02:06:14;1.00;;;0.70;;
19161;SDS011;9713;48.140;11.530;2022-12-29T02:10:00;0.87;;;0.70;;
19161;SDS011;9713;48.140;11.530;2022-12-29T02:13:45;2.10;;;0.90;;
19161;SDS011;9713;48.140;11.530;2022-12-29T02:17:32;1.33;;;0.80;;
19161;SDS011;9713;48.140;11.530;2022-12-29T02:21:30;2.63;;;0.90;;
19161;SDS011;9713;48.140;11.530;2022-12-29T02:29:56;0.97;;;0.80;;
19161;SDS011;9713;48.140;11.530;2022-12-29T02:33:51;0.80;;;0.63;;
19161;SDS011;9713;48.140;11.530;2022-12-29T02:37:38;1.33;;;1.00;;
19161;SDS011;9713;48.140;11.530;2022-12-29T02:41:27;1.47;;;0.90;;
19161;SDS011;9713;48.140;11.530;2022-12-29T02:45:15;1.37;;;0.83;;
19161;SDS011;9713;48.140;11.530;2022-12-29T02:49:05;2.07;;;0.90;;
19161;SDS011;9713;48.140;11.530;2022-12-29T02:52:53;3.10;;;1.00;;
19161;SDS011;9713;48.140;11.530;2022-12-29T02:56:39;1.47;;;0.90;;
19161;SDS011;9713;48.140;11.530;2022-12-29T03:00:21;2.73;;;1.10;;
19161;SDS011;9713;48.140;11.530;2022-12-29T03:04:12;1.50;;;1.10;;
19161;SDS011;9713;48.140;11.530;2022-12-29T03:08:04;1.47;;;0.80;;
19161;SDS011;9713;48.140;11.530;2022-12-29T03:11:50;5.47;;;1.10;;
19161;SDS011;9713;48.140;11.530;2022-12-29T03:15:53;2.03;;;1.00;;
19161;SDS011;9713;48.140;11.530;2022-12-29T03:19:44;1.70;;;0.80;;
19161;SDS011;9713;48.140;11.530;2022-12-29T03:23:29;1.90;;;0.93;;
19161;SDS011;9713;48.140;11.530;2022-12-29T03:27:19;1.43;;;0.70;;
19161;SDS011;9713;48.140;11.530;2022-12-29T03:31:03;2.40;;;1.00;;
19161;SDS011;9713;48.140;11.530;2022-12-29T03:34:49;1.60;;;0.93;;
19161;SDS011;9713;48.140;11.530;2022-12-29T03:38:33;1.33;;;0.83;;
19161;SDS011;9713;48.140;11.530;2022-12-29T03:42:19;1.50;;;1.00;;
19161;SDS011;9713;48.140;11.530;2022-12-29T03:46:05;1.63;;;0.90;;
19161;SDS011;9713;48.140;11.530;2022-12-29T03:49:49;1.43;;;1.00;;
19161;SDS011;9713;48.140;11.530;2022-12-29T03:53:32;1.00;;;0.73;;
19161;SDS011;9713;48.140;11.530;2022-12-29T03:57:15;1.23;;;0.90;;
19161;SDS011;9713;48.140;11.530;2022-12-29T04:00:57;1.70;;;0.97;;
19161;SDS011;9713;48.140;11.530;2022-12-29T04:04:40;5.13;;;1.13;;
19161;SDS011;9713;48.140;11.530;2022-12-29T04:08:24;1.30;;;0.87;;
19161;SDS011;9713;48.140;11.530;2022-12-29T04:12:07;1.33;;;0.87;;
19161;SDS011;9713;48.140;11.530;2022-12-29T04:15:50;2.03;;;0.90;;
19161;SDS011;9713;48.140;11.530;2022-12-29T04:19:33;1.33;;;0.90;;
19161;SDS011;9713;48.140;11.530;2022-12-29T04:23:15;1.30;;;0.90;;
19161;SDS011;9713;48.140;11.530;2022-12-29T04:27:00;1.90;;;1.00;;
19161;SDS011;9713;48.140;11.530;2022-12-29T04:30:42;1.37;;;0.93;;
19161;SDS011;9713;48.140;11.530;2022-12-29T04:34:25;2.43;;;1.10;;
19161;SDS011;9713;48.140;11.530;2022-12-29T04:38:08;1.67;;;1.10;;
19161;SDS011;9713;48.140;11.530;2022-12-29T04:41:51;1.87;;;0.83;;
19161;SDS011;9713;48.140;11.530;2022-12-29T04:45:35;2.43;;;0.87;;
19161;SDS011;9713;48.140;11.530;2022-12-29T04:49:18;1.40;;;0.87;;
19161;SDS011;9713;48.140;11.530;2022-12-29T04:53:01;3.30;;;1.07;;
19161;SDS011;9713;48.140;11.530;2022-12-29T04:56:43;1.23;;;0.87;;
19161;SDS011;9713;48.140;11.530;2022-12-29T05:00:26;1.80;;;1.07;;
19161;SDS011;9713;48.140;11.530;2022-12-29T05:04:10;1.50;;;0.90;;
19161;SDS011;9713;48.140;11.530;2022-12-29T05:07:54;1.30;;;0.83;;
19161;SDS011;9713;48.140;11.530;2022-12-29T05:11:37;3.37;;;0.80;;
19161;SDS011;9713;48.140;11.530;2022-12-29T05:15:19;2.17;;;0.90;;
19161;SDS011;9713;48.140;11.530;2022-12-29T05:19:03;1.50;;;0.90;;
19161;SDS011;9713;48.140;11.530;2022-12-29T05:22:47;1.53;;;1.00;;
19161;SDS011;9713;48.140;11.530;2022-12-29T05:26:29;1.20;;;0.80;;
19161;SDS011;9713;48.140;11.530;2022-12-29T05:30:12;2.00;;;0.93;;
19161;SDS011;9713;48.140;11.530;2022-12-29T05:33:55;1.13;;;0.80;;
19161;SDS011;9713;48.140;11.530;2022-12-29T05:37:38;1.83;;;0.90;;
19161;SDS011;9713;48.140;11.530;2022-12-29T05:41:22;2.50;;;0.90;;
19161;SDS011;9713;48.140;11.530;2022-12-29T05:45:05;2.30;;;0.87;;
19161;SDS011;9713;48.140;11.530;2022-12-29T05:48:49;1.47;;;0.90;;
19161;SDS011;9713;48.140;11.530;2022-12-29T05:52:32;1.40;;;0.80;;
19161;SDS011;9713;48.140;11.530;2022-12-29T05:56:14;1.73;;;1.00;;
19161;SDS011;9713;48.140;11.530;2022-12-29T05:59:59;1.63;;;0.90;;
19161;SDS011;9713;48.140;11.530;2022-12-29T06:03:41;2.37;;;0.80;;
19161;SDS011;9713;48.140;11.530;2022-12-29T06:07:28;1.03;;;0.87;;
19161;SDS011;9713;48.140;11.530;2022-12-29T06:11:13;2.87;;;0.83;;
19161;SDS011;9713;48.140;11.530;2022-12-29T06:14:56;1.20;;;0.90;;
19161;SDS011;9713;48.140;11.530;2022-12-29T06:18:40;1.50;;;0.97;;
19161;SDS011;9713;48.140;11.530;2022-12-29T06:22:23;1.80;;;0.90;;
19161;SDS011;9713;48.140;11.530;2022-12-29T06:26:06;1.23;;;0.97;;
19161;SDS011;9713;48.140;11.530;2022-12-29T06:29:48;2.20;;;0.93;;
19161;SDS011;9713;48.140;11.530;2022-12-29T06:33:31;1.43;;;1.00;;
19161;SDS011;9713;48.140;11.530;2022-12-29T06:37:15;1.40;;;0.90;;
19161;SDS011;9713;48.140;11.530;2022-12-29T06:40:58;1.50;;;1.20;;
19161;SDS011;9713;48.140;11.530;2022-12-29T06:44:40;3.83;;;1.27;;
19161;SDS011;9713;48.140;11.530;2022-12-29T06:48:24;1.47;;;1.00;;
19161;SDS011;9713;48.140;11.530;2022-12-29T06:52:06;1.67;;;1.00;;
19161;SDS011;9713;48.140;11.530;2022-12-29T06:55:54;2.17;;;1.17;;
19161;SDS011;9713;48.140;11.530;2022-12-29T06:59:38;3.03;;;1.07;;
19161;SDS011;9713;48.140;11.530;2022-12-29T07:03:20;3.37;;;1.10;;
19161;SDS011;9713;48.140;11.530;2022-12-29T07:07:03;1.87;;;1.10;;
19161;SDS011;9713;48.140;11.530;2022-12-29T07:10:46;1.73;;;1.20;;
19161;SDS011;9713;48.140;11.530;2022-12-29T07:14:30;2.17;;;1.20;;
19161;SDS011;9713;48.140;11.530;2022-12-29T07:18:22;1.93;;;1.27;;
19161;SDS011;9713;48.140;11.530;2022-12-29T07:22:05;2.17;;;1.20;;
19161;SDS011;9713;48.140;11.530;2022-12-29T07:25:48;2.10;;;1.20;;
19161;SDS011;9713;48.140;11.530;2022-12-29T07:29:32;1.77;;;1.00;;
19161;SDS011;9713;48.140;11.530;2022-12-29T07:33:15;4.40;;;1.33;;
19161;SDS011;9713;48.140;11.530;2022-12-29T07:36:58;1.20;;;0.80;;
19161;SDS011;9713;48.140;11.530;2022-12-29T07:40:41;1.63;;;1.10;;
19161;SDS011;9713;48.140;11.530;2022-12-29T07:44:24;1.40;;;1.00;;
19161;SDS011;9713;48.140;11.530;2022-12-29T07:48:08;1.70;;;1.07;;
19161;SDS011;9713;48.140;11.530;2022-12-29T07:51:51;1.30;;;0.83;;
19161;SDS011;9713;48.140;11.530;2022-12-29T07:55:33;2.00;;;1.63;;
19161;SDS011;9713;48.140;11.530;2022-12-29T07:59:16;4.43;;;1.27;;
19161;SDS011;9713;48.140;11.530;2022-12-29T08:02:59;2.83;;;1.30;;
19161;SDS011;9713;48.140;11.530;2022-12-29T08:06:43;1.53;;;1.10;;
19161;SDS011;9713;48.140;11.530;2022-12-29T08:10:27;1.70;;;1.30;;
19161;SDS011;9713;48.140;11.530;2022-12-29T08:14:10;1.77;;;1.20;;
19161;SDS011;9713;48.140;11.530;2022-12-29T08:17:53;3.87;;;1.20;;
19161;SDS011;9713;48.140;11.530;2022-12-29T08:21:35;1.90;;;1.17;;
19161;SDS011;9713;48.140;11.530;2022-12-29T08:25:19;4.70;;;1.60;;
19161;SDS011;9713;48.140;11.530;2022-12-29T08:29:05;1.77;;;1.20;;
19161;SDS011;9713;48.140;11.530;2022-12-29T08:32:48;1.47;;;1.10;;
19161;SDS011;9713;48.140;11.530;2022-12-29T08:36:30;1.93;;;1.00;;
19161;SDS011;9713;48.140;11.530;2022-12-29T08:40:13;2.40;;;1.30;;
19161;SDS011;9713;48.140;11.530;2022-12-29T08:44:00;2.80;;;1.50;;
19161;SDS011;9713;48.140;11.530;2022-12-29T08:47:43;2.97;;;1.37;;
19161;SDS011;9713;48.140;11.530;2022-12-29T08:51:26;1.83;;;1.10;;
19161;SDS011;9713;48.140;11.530;2022-12-29T08:55:09;1.83;;;1.07;;
19161;SDS011;9713;48.140;11.530;2022-12-29T08:58:52;2.07;;;1.10;;
19161;SDS011;9713;48.140;11.530;2022-12-29T09:02:36;1.80;;;1.00;;
19161;SDS011;9713;48.140;11.530;2022-12-29T09:06:19;3.43;;;1.07;;
19161;SDS011;9713;48.140;11.530;2022-12-29T09:10:02;2.60;;;1.40;;
19161;SDS011;9713;48.140;11.530;2022-12-29T09:13:45;1.50;;;1.20;;
19161;SDS011;9713;48.140;11.530;2022-12-29T09:17:28;1.50;;;1.10;;
19161;SDS011;9713;48.140;11.530;2022-12-29T09:21:24;1.50;;;0.90;;
19161;SDS011;9713;48.140;11.530;2022-12-29T09:25:07;3.30;;;1.20;;
19161;SDS011;9713;48.140;11.530;2022-12-29T09:28:51;2.00;;;1.00;;
19161;SDS011;9713;48.140;11.530;2022-12-29T09:32:34;1.70;;;0.90;;
19161;SDS011;9713;48.140;11.530;2022-12-29T09:36:26;2.63;;;1.30;;
19161;SDS011;9713;48.140;11.530;2022-12-29T09:40:13;1.83;;;1.10;;
19161;SDS011;9713;48.140;11.530;2022-12-29T09:44:05;2.93;;;1.60;;
19161;SDS011;9713;48.140;11.530;2022-12-29T09:47:51;3.50;;;1.23;;
19161;SDS011;9713;48.140;11.530;2022-12-29T09:51:36;1.90;;;1.20;;
19161;SDS011;9713;48.140;11.530;2022-12-29T09:55:21;2.17;;;1.40;;
19161;SDS011;9713;48.140;11.530;2022-12-29T09:59:07;2.13;;;1.30;;
19161;SDS011;9713;48.140;11.530;2022-12-29T10:02:54;2.30;;;1.10;;
19161;SDS011;9713;48.140;11.530;2022-12-29T10:06:42;2.27;;;1.27;;
19161;SDS011;9713;48.140;11.530;2022-12-29T10:10:49;1.30;;;1.03;;
19161;SDS011;9713;48.140;11.530;2022-12-29T10:14:39;1.60;;;1.13;;
19161;SDS011;9713;48.140;11.530;2022-12-29T10:18:43;3.10;;;1.10;;
19161;SDS011;9713;48.140;11.530;2022-12-29T10:22:57;2.20;;;1.30;;
19161;SDS011;9713;48.140;11.530;2022-12-29T10:26:48;3.10;;;1.30;;
19161;SDS011;9713;48.140;11.530;2022-12-29T10:30:33;1.50;;;1.03;;
19161;SDS011;9713;48.140;11.530;2022-12-29T10:34:18;1.87;;;1.20;;
19161;SDS011;9713;48.140;11.530;2022-12-29T10:38:09;3.10;;;1.47;;
19161;SDS011;9713;48.140;11.530;2022-12-29T10:41:55;2.10;;;1.33;;
19161;SDS011;9713;48.140;11.530;2022-12-29T10:45:43;2.87;;;1.73;;
19161;SDS011;9713;48.140;11.530;2022-12-29T10:49:26;5.60;;;1.50;;
19161;SDS011;9713;48.140;11.530;2022-12-29T10:53:12;3.63;;;1.40;;
19161;SDS011;9713;48.140;11.530;2022-12-29T10:57:00;3.60;;;1.53;;
19161;SDS011;9713;48.140;11.530;2022-12-29T11:00:48;2.63;;;1.50;;
19161;SDS011;9713;48.140;11.530;2022-12-29T11:04:40;1.97;;;1.20;;
19161;SDS011;9713;48.140;11.530;2022-12-29T11:08:28;2.57;;;1.30;;
19161;SDS011;9713;48.140;11.530;2022-12-29T11:12:20;3.07;;;1.77;;
19161;SDS011;9713;48.140;11.530;2022-12-29T11:16:04;1.30;;;1.10;;
19161;SDS011;9713;48.140;11.530;2022-12-29T11:19:48;3.43;;;1.30;;
19161;SDS011;9713;48.140;11.530;2022-12-29T11:23:32;4.17;;;1.10;;
19161;SDS011;9713;48.140;11.530;2022-12-29T11:27:17;3.83;;;1.10;;
19161;SDS011;9713;48.140;11.530;2022-12-29T11:31:02;1.93;;;1.00;;
19161;SDS011;9713;48.140;11.530;2022-12-29T11:34:46;3.63;;;1.10;;
19161;SDS011;9713;48.140;11.530;2022-12-29T11:38:31;2.20;;;1.03;;
19161;SDS011;9713;48.140;11.530;2022-12-29T11:42:18;4.23;;;1.10;;
19161;SDS011;9713;48.140;11.530;2022-12-29T11:46:02;2.63;;;0.90;;
19161;SDS011;9713;48.140;11.530;2022-12-29T11:49:48;2.83;;;0.90;;
19161;SDS011;9713;48.140;11.530;2022-12-29T11:53:37;1.30;;;0.70;;
19161;SDS011;9713;48.140;11.530;2022-12-29T11:57:21;3.40;;;1.03;;
19161;SDS011;9713;48.140;11.530;2022-12-29T12:01:05;1.20;;;1.00;;
19161;SDS011;9713;48.140;11.530;2022-12-29T12:04:51;1.70;;;1.30;;
19161;SDS011;9713;48.140;11.530;2022-12-29T12:08:41;1.47;;;1.00;;
19161;SDS011;9713;48.140;11.530;2022-12-29T12:12:28;2.70;;;1.30;;
19161;SDS011;9713;48.140;11.530;2022-12-29T12:16:15;1.80;;;0.80;;
19161;SDS011;9713;48.140;11.530;2022-12-29T12:20:00;2.20;;;1.00;;
19161;SDS011;9713;48.140;11.530;2022-12-29T12:23:56;3.10;;;0.83;;
19161;SDS011;9713;48.140;11.530;2022-12-29T12:27:43;4.17;;;0.80;;
19161;SDS011;9713;48.140;11.530;2022-12-29T12:31:33;1.30;;;0.80;;
19161;SDS011;9713;48.140;11.530;2022-12-29T12:35:26;2.77;;;0.90;;
19161;SDS011;9713;48.140;11.530;2022-12-29T12:39:21;2.20;;;0.90;;
19161;SDS011;9713;48.140;11.530;2022-12-29T12:43:13;1.77;;;1.00;;
19161;SDS011;9713;48.140;11.530;2022-12-29T12:47:16;1.40;;;0.80;;
19161;SDS011;9713;48.140;11.530;2022-12-29T12:51:07;3.50;;;0.90;;
19161;SDS011;9713;48.140;11.530;2022-12-29T12:55:05;1.63;;;0.80;;
19161;SDS011;9713;48.140;11.530;2022-12-29T12:58:53;1.67;;;1.00;;
19161;SDS011;9713;48.140;11.530;2022-12-29T13:02:54;1.80;;;0.77;;
19161;SDS011;9713;48.140;11.530;2022-12-29T13:06:43;1.43;;;0.80;;
19161;SDS011;9713;48.140;11.530;2022-12-29T13:10:38;2.97;;;0.90;;
19161;SDS011;9713;48.140;11.530;2022-12-29T13:14:35;3.97;;;1.20;;
19161;SDS011;9713;48.140;11.530;2022-12-29T13:18:25;1.40;;;1.03;;
19161;SDS011;9713;48.140;11.530;2022-12-29T13:22:12;3.77;;;1.00;;
19161;SDS011;9713;48.140;11.530;2022-12-29T13:26:04;1.63;;;1.03;;
19161;SDS011;9713;48.140;11.530;2022-12-29T13:29:57;1.37;;;0.93;;
19161;SDS011;9713;48.140;11.530;2022-12-29T13:33:45;3.13;;;1.27;;
19161;SDS011;9713;48.140;11.530;2022-12-29T13:37:31;3.27;;;1.00;;
19161;SDS011;9713;48.140;11.530;2022-12-29T13:41:18;3.97;;;1.20;;
19161;SDS011;9713;48.140;11.530;2022-12-29T13:45:04;1.47;;;0.93;;
19161;SDS011;9713;48.140;11.530;2022-12-29T13:48:49;3.37;;;1.17;;
19161;SDS011;9713;48.140;11.530;2022-12-29T13:52:34;3.37;;;1.17;;
19161;SDS011;9713;48.140;11.530;2022-12-29T13:56:21;3.23;;;1.30;;
19161;SDS011;9713;48.140;11.530;2022-12-29T14:00:11;2.90;;;1.40;;
19161;SDS011;9713;48.140;11.530;2022-12-29T14:03:56;2.60;;;1.30;;
19161;SDS011;9713;48.140;11.530;2022-12-29T14:07:39;2.07;;;1.00;;
19161;SDS011;9713;48.140;11.530;2022-12-29T14:11:28;3.17;;;1.00;;
19161;SDS011;9713;48.140;11.530;2022-12-29T14:15:20;1.10;;;0.80;;
19161;SDS011;9713;48.140;11.530;2022-12-29T14:19:09;4.20;;;1.17;;
19161;SDS011;9713;48.140;11.530;2022-12-29T14:22:57;3.73;;;1.20;;
19161;SDS011;9713;48.140;11.530;2022-12-29T14:26:43;1.73;;;1.00;;
19161;SDS011;9713;48.140;11.530;2022-12-29T14:30:46;1.50;;;1.03;;
19161;SDS011;9713;48.140;11.530;2022-12-29T14:34:30;2.53;;;1.33;;
19161;SDS011;9713;48.140;11.530;2022-12-29T14:38:25;2.47;;;1.00;;
19161;SDS011;9713;48.140;11.530;2022-12-29T14:42:13;2.07;;;1.37;;
19161;SDS011;9713;48.140;11.530;2022-12-29T14:45:59;5.93;;;2.13;;
19161;SDS011;9713;48.140;11.530;2022-12-29T14:49:43;5.37;;;1.80;;
19161;SDS011;9713;48.140;11.530;2022-12-29T14:57:35;5.33;;;2.60;;
19161;SDS011;9713;48.140;11.530;2022-12-29T15:01:25;4.37;;;2.23;;
19161;SDS011;9713;48.140;11.530;2022-12-29T15:05:22;3.53;;;2.10;;
19161;SDS011;9713;48.140;11.530;2022-12-29T15:09:10;3.00;;;1.90;;
19161;SDS011;9713;48.140;11.530;2022-12-29T15:13:02;7.57;;;2.60;;
19161;SDS011;9713;48.140;11.530;2022-12-29T15:16:46;6.60;;;2.57;;
19161;SDS011;9713;48.140;11.530;2022-12-29T15:20:30;7.13;;;3.10;;
19161;SDS011;9713;48.140;11.530;2022-12-29T15:24:14;5.93;;;2.43;;
19161;SDS011;9713;48.140;11.530;2022-12-29T15:27:59;10.13;;;4.20;;
19161;SDS011;9713;48.140;11.530;2022-12-29T15:31:45;3.53;;;2.30;;
19161;SDS011;9713;48.140;11.530;2022-12-29T15:35:31;5.27;;;2.40;;
19161;SDS011;9713;48.140;11.530;2022-12-29T15:39:18;5.10;;;2.20;;
19161;SDS011;9713;48.140;11.530;2022-12-29T15:43:06;3.97;;;1.83;;
19161;SDS011;9713;48.140;11.530;2022-12-29T15:46:55;2.90;;;1.60;;
19161;SDS011;9713;48.140;11.530;2022-12-29T15:50:38;3.60;;;2.13;;
19161;SDS011;9713;48.140;11.530;2022-12-29T15:54:24;6.97;;;2.00;;
19161;SDS011;9713;48.140;11.530;2022-12-29T15:58:19;3.50;;;2.23;;
19161;SDS011;9713;48.140;11.530;2022-12-29T16:02:07;8.63;;;2.60;;
19161;SDS011;9713;48.140;11.530;2022-12-29T16:05:53;4.87;;;2.70;;
19161;SDS011;9713;48.140;11.530;2022-12-29T16:09:41;4.10;;;2.30;;
19161;SDS011;9713;48.140;11.530;2022-12-29T16:13:26;3.50;;;2.00;;
19161;SDS011;9713;48.140;11.530;2022-12-29T16:17:17;4.20;;;2.30;;
19161;SDS011;9713;48.140;11.530;2022-12-29T16:21:03;4.43;;;2.10;;
19161;SDS011;9713;48.140;11.530;2022-12-29T16:24:47;4.23;;;2.10;;
19161;SDS011;9713;48.140;11.530;2022-12-29T16:28:34;3.73;;;2.00;;
19161;SDS011;9713;48.140;11.530;2022-12-29T16:32:23;3.57;;;1.90;;
19161;SDS011;9713;48.140;11.530;2022-12-29T16:40:25;3.57;;;1.73;;
19161;SDS011;9713;48.140;11.530;2022-12-29T16:44:14;4.80;;;2.23;;
19161;SDS011;9713;48.140;11.530;2022-12-29T16:48:09;3.07;;;2.00;;
19161;SDS011;9713;48.140;11.530;2022-12-29T16:51:57;6.90;;;2.63;;
19161;SDS011;9713;48.140;11.530;2022-12-29T16:55:44;3.97;;;2.00;;
19161;SDS011;9713;48.140;11.530;2022-12-29T16:59:32;5.40;;;2.60;;
19161;SDS011;9713;48.140;11.530;2022-12-29T17:03:15;5.07;;;2.17;;
19161;SDS011;9713;48.140;11.530;2022-12-29T17:06:58;3.17;;;1.80;;
19161;SDS011;9713;48.140;11.530;2022-12-29T17:10:41;3.13;;;1.87;;
19161;SDS011;9713;48.140;11.530;2022-12-29T17:14:43;4.20;;;1.73;;
19161;SDS011;9713;48.140;11.530;2022-12-29T17:18:26;2.90;;;1.80;;
19161;SDS011;9713;48.140;11.530;2022-12-29T17:22:09;3.03;;;1.70;;
19161;SDS011;9713;48.140;11.530;2022-12-29T17:25:54;6.47;;;2.00;;
19161;SDS011;9713;48.140;11.530;2022-12-29T17:29:38;4.97;;;2.20;;
19161;SDS011;9713;48.140;11.530;2022-12-29T17:33:23;3.83;;;2.00;;
19161;SDS011;9713;48.140;11.530;2022-12-29T17:37:09;18.60;;;5.37;;
19161;SDS011;9713;48.140;11.530;2022-12-29T17:41:13;4.40;;;1.80;;
19161;SDS011;9713;48.140;11.530;2022-12-29T17:44:56;4.23;;;2.03;;
19161;SDS011;9713;48.140;11.530;2022-12-29T17:48:41;4.33;;;2.00;;
19161;SDS011;9713;48.140;11.530;2022-12-29T17:52:31;3.17;;;1.83;;
19161;SDS011;9713;48.140;11.530;2022-12-29T17:56:14;4.50;;;2.07;;
19161;SDS011;9713;48.140;11.530;2022-12-29T17:59:57;4.63;;;2.40;;
19161;SDS011;9713;48.140;11.530;2022-12-29T18:03:44;5.77;;;2.80;;
19161;SDS011;9713;48.140;11.530;2022-12-29T18:07:27;5.03;;;2.77;;
19161;SDS011;9713;48.140;11.530;2022-12-29T18:11:19;5.33;;;2.70;;
19161;SDS011;9713;48.140;11.530;2022-12-29T18:15:05;5.13;;;2.83;;
19161;SDS011;9713;48.140;11.530;2022-12-29T18:18:53;7.07;;;3.50;;
19161;SDS011;9713;48.140;11.530;2022-12-29T18:22:35;15.00;;;5.27;;
19161;SDS011;9713;48.140;11.530;2022-12-29T18:26:20;51.17;;;16.47;;
19161;SDS011;9713;48.140;11.530;2022-12-29T18:30:08;12.17;;;5.70;;
19161;SDS011;9713;48.140;11.530;2022-12-29T18:33:57;11.50;;;4.77;;
19161;SDS011;9713;48.140;11.530;2022-12-29T18:37:41;13.70;;;5.80;;
19161;SDS011;9713;48.140;11.530;2022-12-29T18:41:24;14.30;;;7.10;;
19161;SDS011;9713;48.140;11.530;2022-12-29T18:45:14;5.60;;;2.73;;
19161;SDS011;9713;48.140;11.530;2022-12-29T18:49:00;6.40;;;3.13;;
19161;SDS011;9713;48.140;11.530;2022-12-29T18:52:42;6.97;;;3.43;;
19161;SDS011;9713;48.140;11.530;2022-12-29T18:56:25;6.33;;;3.60;;
19161;SDS011;9713;48.140;11.530;2022-12-29T19:00:09;7.30;;;3.17;;
19161;SDS011;9713;48.140;11.530;2022-12-29T19:03:53;5.37;;;3.43;;
19161;SDS011;9713;48.140;11.530;2022-12-29T19:07:37;6.87;;;3.50;;
19161;SDS011;9713;48.140;11.530;2022-12-29T19:11:19;6.47;;;3.10;;
19161;SDS011;9713;48.140;11.530;2022-12-29T19:15:04;3.90;;;2.70;;
19161;SDS011;9713;48.140;11.530;2022-12-29T19:18:48;7.07;;;2.80;;
19161;SDS011;9713;48.140;11.530;2022-12-29T19:22:50;5.77;;;2.87;;
19161;SDS011;9713;48.140;11.530;2022-12-29T19:26:33;10.20;;;4.50;;
19161;SDS011;9713;48.140;11.530;2022-12-29T19:30:17;3.50;;;2.30;;
19161;SDS011;9713;48.140;11.530;2022-12-29T19:34:01;7.93;;;2.70;;
19161;SDS011;9713;48.140;11.530;2022-12-29T19:37:44;5.67;;;2.50;;
19161;SDS011;9713;48.140;11.530;2022-12-29T19:41:30;6.17;;;3.00;;
19161;SDS011;9713;48.140;11.530;2022-12-29T19:45:13;4.57;;;2.33;;
19161;SDS011;9713;48.140;11.530;2022-12-29T19:48:56;5.47;;;2.43;;
19161;SDS011;9713;48.140;11.530;2022-12-29T19:52:39;5.83;;;2.63;;
19161;SDS011;9713;48.140;11.530;2022-12-29T19:56:23;3.87;;;2.20;;
19161;SDS011;9713;48.140;11.530;2022-12-29T20:00:08;5.40;;;2.50;;
19161;SDS011;9713;48.140;11.530;2022-12-29T20:03:53;3.33;;;2.20;;
19161;SDS011;9713;48.140;11.530;2022-12-29T20:07:36;4.27;;;2.07;;
19161;SDS011;9713;48.140;11.530;2022-12-29T20:11:19;5.33;;;2.27;;
19161;SDS011;9713;48.140;11.530;2022-12-29T20:15:03;4.77;;;2.50;;
19161;SDS011;9713;48.140;11.530;2022-12-29T20:18:48;4.03;;;1.80;;
19161;SDS011;9713;48.140;11.530;2022-12-29T20:22:31;3.60;;;2.00;;
19161;SDS011;9713;48.140;11.530;2022-12-29T20:26:14;3.90;;;2.00;;
19161;SDS011;9713;48.140;11.530;2022-12-29T20:29:59;4.27;;;2.03;;
19161;SDS011;9713;48.140;11.530;2022-12-29T20:33:42;3.53;;;2.00;;
19161;SDS011;9713;48.140;11.530;2022-12-29T20:37:26;4.03;;;2.20;;
19161;SDS011;9713;48.140;11.530;2022-12-29T20:41:09;3.50;;;1.87;;
19161;SDS011;9713;48.140;11.530;2022-12-29T20:44:52;3.60;;;2.00;;
19161;SDS011;9713;48.140;11.530;2022-12-29T20:48:35;5.10;;;2.57;;
19161;SDS011;9713;48.140;11.530;2022-12-29T20:52:17;4.87;;;2.50;;
19161;SDS011;9713;48.140;11.530;2022-12-29T20:56:02;3.00;;;1.93;;
19161;SDS011;9713;48.140;11.530;2022-12-29T20:59:47;5.57;;;2.40;;
19161;SDS011;9713;48.140;11.530;2022-12-29T21:03:30;3.17;;;1.90;;
19161;SDS011;9713;48.140;11.530;2022-12-29T21:07:13;4.23;;;2.00;;
19161;SDS011;9713;48.140;11.530;2022-12-29T21:11:02;4.40;;;2.40;;
19161;SDS011;9713;48.140;11.530;2022-12-29T21:14:45;4.37;;;2.37;;
19161;SDS011;9713;48.140;11.530;2022-12-29T21:18:30;5.67;;;2.80;;
19161;SDS011;9713;48.140;11.530;2022-12-29T21:22:13;5.23;;;2.40;;
19161;SDS011;9713;48.140;11.530;2022-12-29T21:25:56;4.10;;;2.40;;
19161;SDS011;9713;48.140;11.530;2022-12-29T21:29:41;4.10;;;2.27;;
19161;SDS011;9713;48.140;11.530;2022-12-29T21:33:24;5.43;;;2.53;;
19161;SDS011;9713;48.140;11.530;2022-12-29T21:37:07;3.73;;;2.33;;
19161;SDS011;9713;48.140;11.530;2022-12-29T21:40:49;6.40;;;2.53;;
19161;SDS011;9713;48.140;11.530;2022-12-29T21:44:32;7.30;;;3.40;;
19161;SDS011;9713;48.140;11.530;2022-12-29T21:48:34;4.80;;;3.10;;
19161;SDS011;9713;48.140;11.530;2022-12-29T21:52:17;5.90;;;3.27;;
19161;SDS011;9713;48.140;11.530;2022-12-29T21:55:59;5.10;;;3.60;;
19161;SDS011;9713;48.140;11.530;2022-12-29T21:59:42;5.37;;;3.30;;
19161;SDS011;9713;48.140;11.530;2022-12-29T22:03:44;5.33;;;3.40;;
19161;SDS011;9713;48.140;11.530;2022-12-29T22:07:44;7.30;;;3.60;;
19161;SDS011;9713;48.140;11.530;2022-12-29T22:11:44;6.63;;;3.60;;
19161;SDS011;9713;48.140;11.530;2022-12-29T22:15:45;5.90;;;3.50;;
19161;SDS011;9713;48.140;11.530;2022-12-29T22:19:29;5.33;;;3.20;;
19161;SDS011;9713;48.140;11.530;2022-12-29T22:23:12;6.03;;;3.27;;
19161;SDS011;9713;48.140;11.530;2022-12-29T22:26:55;6.40;;;2.90;;
19161;SDS011;9713;48.140;11.530;2022-12-29T22:30:38;13.47;;;4.83;;
19161;SDS011;9713;48.140;11.530;2022-12-29T22:34:20;3.97;;;2.80;;
19161;SDS011;9713;48.140;11.530;2022-12-29T22:38:04;4.87;;;2.83;;
19161;SDS011;9713;48.140;11.530;2022-12-29T22:41:47;5.23;;;3.23;;
19161;SDS011;9713;48.140;11.530;2022-12-29T22:45:30;5.70;;;3.70;;
19161;SDS011;9713;48.140;11.530;2022-12-29T22:49:12;6.03;;;3.40;;
19161;SDS011;9713;48.140;11.530;2022-12-29T22:52:57;7.13;;;3.43;;
19161;SDS011;9713;48.140;11.530;2022-12-29T22:56:41;5.80;;;3.30;;